Metar Cercanos

 

LEPA - Palma De Mallorc, Spain
Distance from station: ONO 38km
Actualización: Mon, 18-Jan-2021 2:30am CET
Despejado
Despejado
 Viento del ENE
Viento: ENE 20 km/h
Temperatura: 9°C
Sensación frio: 6°C
Rocío: 4°C
Humedad: 71%
Barómetro: 1025 hPa
Resumen: Despejado
Visibility: greater than 10 km
2021/01/18 01:30 LEPA 180130Z 07011KT CAVOK 09/04 Q1025 NOSIG
LEMH - Mahon/Menorca Is, Spain
Distance from station: ENE 105km
Actualización: Mon, 18-Jan-2021 2:30am CET
Few Clouds
Few Clouds
 Viento del N
Viento: N 24 km/h
Temperatura: 9°C
Sensación frio: 6°C
Rocío: 4°C
Humedad: 71%
Barómetro: 1025 hPa
Clouds: Few Clouds
Visibility: 10 km
Cloud details: Few Clouds 701 m
2021/01/18 01:30 LEMH 180130Z AUTO 01013KT 9999 FEW023/// 09/04 Q1025
 
LEIB - Ibiza/Es Codola, Spain
Distance from station: OSO 165km
Actualización: Mon, 18-Jan-2021 2:30am CET
Despejado
Despejado
 Viento del NE
Viento: NE 6 km/h
Temperatura: 12°C
Rocío: 7°C
Humedad: 72%
Barómetro: 1025 hPa
Resumen: Despejado
Visibility: greater than 10 km
2021/01/18 01:30 LEIB 180130Z AUTO 04003KT 350V080 CAVOK 12/07 Q1025
LEBL - Barcelona Airpor, Spain
Distance from station: NNO 225km
Actualización: Mon, 18-Jan-2021 2:30am CET
Few Clouds
Few Clouds
 Viento del NO
Viento: NO 6 km/h
Temperatura: 8°C
Rocío: 4°C
Humedad: 76%
Barómetro: 1025 hPa
Clouds: Few Clouds
Visibility: 10 km
Cloud details: Few Clouds 1494 m
2021/01/18 01:30 LEBL 180130Z 32003KT 9999 FEW049 08/04 Q1025 NOSIG
 
LEVC - Valencia (civ/Mi, Spain
Distance from station: NO 188km
Actualización: Mon, 18-Jan-2021 2:30am CET
Despejado
Despejado
 Viento del OSO
Viento: OSO 15 km/h
Temperatura: 7°C
Sensación frio: 4°C
Rocío: 2°C
Humedad: 71%
Barómetro: 1026 hPa
Resumen: Despejado
Visibility: greater than 10 km
2021/01/18 01:30 LEVC 180130Z 25008KT CAVOK 07/02 Q1026 NOSIG
LEGE - Gerona/Costa Bra, Spain
Distance from station: N 276km
Actualización: Mon, 18-Jan-2021 2:30am CET
Despejado
Despejado
 Viento del NNO
Viento: NNO 7 km/h
Temperatura: 4°C
Sensación frio: 2°C
Rocío: 1°C
Humedad: 81%
Barómetro: 1025 hPa
Resumen: Despejado
Visibility: greater than 10 km
2021/01/18 01:30 LEGE 180130Z 33004KT 290V360 CAVOK 04/01 Q1025
 
LEAL - Alicante/El Alte, Spain
Distance from station: OSO 344km
Actualización: Mon, 18-Jan-2021 2:30am CET
Despejado
Despejado
 Viento del O
Viento: O 9 km/h
Temperatura: 10°C
Sensación frio: 9°C
Rocío: -4°C
Humedad: 37%
Barómetro: 1025 hPa
Resumen: Despejado
Visibility: greater than 10 km
2021/01/18 01:30 LEAL 180130Z 26005KT 210V300 CAVOK 10/M04 Q1025 NOSIG
LEAM - Almeria Airport, Spain
Distance from station: SSO 56km
Actualización: Mon, 18-Jan-2021 2:30am CET
Despejado
Despejado
 Viento del NNO
Viento: NNO 11 km/h
Temperatura: 8°C
Sensación frio: 6°C
Rocío: 6°C
Humedad: 87%
Barómetro: 1026 hPa
Resumen: Despejado
Visibility: greater than 10 km
2021/01/18 01:30 LEAM 180130Z AUTO 33006KT CAVOK 08/06 Q1026
 
LEZG - Zaragoza (mil/Ci, Spain
Distance from station: NO 431km
Actualización: Mon, 18-Jan-2021 2:30am CET
Despejado
Despejado
 Viento del O
Viento: O 22 km/h
Temperatura: 8°C
Sensación frio: 4°C
Rocío: 6°C
Humedad: 87%
Barómetro: 1026 hPa
Resumen: Despejado
Visibility: greater than 10 km
2021/01/18 01:30 LEZG 180130Z 27012KT CAVOK 08/06 Q1026
LEMD - Madrid/Barajas, Spain
Distance from station: ONO 234km
Actualización: Mon, 18-Jan-2021 2:30am CET
Parcialmente nuboso
Parcialmente nuboso
 Viento del N
Viento: N 7 km/h
Temperatura: -4°C
Sensación frio: -7°C
Rocío: -6°C
Humedad: 86%
Barómetro: 1028 hPa
Clouds: Parcialmente nuboso
Visibility: 7 km
2021/01/18 01:30 LEMD 180130Z 01004KT 7000 NSC M04/M06 Q1028 NOSIG
 
LEGR - Granada Airport, Spain
Distance from station: OSO 62km
Actualización: Mon, 18-Jan-2021 2:30am CET

 Viento del calm
Viento: Calma
Temperatura: -1°C
Rocío: -2°C
Humedad: 93%
Barómetro: 1027 hPa
Visibility: 10 km
2021/01/18 01:30 LEGR 180130Z AUTO 00000KT 9999 ////// M01/M02 Q1027
LEMG - Malaga (civ/Mil), Spain
Distance from station: OSO 227km
Actualización: Mon, 18-Jan-2021 2:30am CET
Few Clouds
Few Clouds
 Viento del O
Viento: O 15 km/h
Temperatura: 6°C
Sensación frio: 3°C
Rocío: 4°C
Humedad: 87%
Barómetro: 1025 hPa
Clouds: Few Clouds
Visibility: 10 km
Cloud details: Few Clouds 610 m
2021/01/18 01:30 LEMG 180130Z 28008KT 9999 FEW020 06/04 Q1025 NOSIG
 
LEZL - Sevilla (civ/Mil, Spain
Distance from station: S 318km
Actualización: Mon, 18-Jan-2021 2:30am CET
Despejado
Despejado
 Viento del varies
Viento: varies 4 km/h
Temperatura: 3°C
Rocío: 2°C
Humedad: 93%
Barómetro: 1027 hPa
Resumen: Despejado
Visibility: greater than 10 km
2021/01/18 01:30 LEZL 180130Z AUTO VRB02KT CAVOK 03/02 Q1027
LEVT - Vitoria, Spain
Distance from station: NO 226km
Actualización: Mon, 18-Jan-2021 2:30am CET
Parcialmente nuboso
Parcialmente nuboso
 Viento del varies
Viento: varies 4 km/h
Temperatura: 5°C
Rocío: 5°C
Humedad: 100%
Barómetro: 1028 hPa
Clouds: Parcialmente nuboso
Visibility: 9 km
Cloud details: Few Clouds 305 m
Parcialmente nuboso 1372 m
2021/01/18 01:30 LEVT 180130Z VRB02KT 9000 FEW010 SCT045 05/05 Q1028
 
LEBB - Bilbao/Sondica, Spain
Distance from station: NNO 235km
Actualización: Mon, 18-Jan-2021 2:30am CET
Few Clouds
Few Clouds
 Viento del E
Viento: E 6 km/h
Temperatura: 7°C
Rocío: 7°C
Humedad: 100%
Barómetro: 1029 hPa
Clouds: Few Clouds
Visibility: 10 km
Cloud details: Few Clouds 1067 m
2021/01/18 01:30 LEBB 180130Z AUTO 08003KT 060V120 9999 FEW035 07/07 Q1029
LESO - San Sebastian/Fu, Spain
Distance from station: N 231km
Actualización: Mon, 18-Jan-2021 2:30am CET
Niebla, Muy nuboso
Niebla, Muy nuboso
 Viento del S
Viento: S 4 km/h
Temperatura: 5°C
Rocío: 5°C
Humedad: 100%
Barómetro: 1030 hPa
Resumen: Niebla
Clouds: Muy nuboso
Visibility: 1 km
Cloud details: Muy nuboso 762 m
Muy nuboso 945 m
2021/01/18 01:30 LESO 180130Z AUTO 19002KT 0700 0150SW R22/1900D R04/0550U FG BKN025 BKN031 05/05 Q1030
 
LEVD - Valladolid(Mil/C, Spain
Distance from station: ONO 239km
Actualización: Mon, 18-Jan-2021 2:30am CET
Mist, Patches of, Niebla, Cubierto
Mist, Patches of, Niebla, Cubierto
 Viento del NE
Viento: NE 6 km/h
Temperatura: -3°C
Rocío: -4°C
Humedad: 93%
Barómetro: 1028 hPa
Resumen: Mist, Patches of, Niebla
Clouds: Cubierto
Visibility: 4 km
Cloud details: Cubierto 61 m
2021/01/18 01:30 LEVD 180130Z AUTO 05003KT 4000 0900NE BR BCFG VV002 M03/M04 Q1028
LESA - Salamanca (civ/M, Spain
Distance from station: ONO 349km
Actualización: Mon, 18-Jan-2021 2:30am CET
Despejado
Despejado
 Viento del calm
Viento: Calma
Temperatura: -4°C
Rocío: -6°C
Humedad: 86%
Barómetro: 1028 hPa
Resumen: Despejado
Visibility: greater than 10 km
2021/01/18 01:30 LESA 180130Z AUTO 00000KT CAVOK M04/M06 Q1028
 
LEXJ - Santander/Paraya, Spain
Distance from station: NNO 247km
Actualización: Mon, 18-Jan-2021 2:30am CET
Lluvia débil, Mist, Cubierto
Lluvia débil, Mist, Cubierto
 Viento del calm
Viento: Calma
Temperatura: 10°C
Rocío: 10°C
Humedad: 100%
Barómetro: 1029 hPa
Resumen: Lluvia débil, Mist
Clouds: Cubierto
Visibility: 5 km
Cloud details: Muy nuboso 61 m
Cubierto 1158 m
2021/01/18 01:30 LEXJ 180130Z AUTO 00000KT 5000 -RA BR BKN002 OVC038 10/10 Q1029
LEAS - Asturias/Aviles, Spain
Distance from station: NO 214km
Actualización: Mon, 18-Jan-2021 2:30am CET
Niebla, Cubierto
Niebla, Cubierto
 Viento del NNO
Viento: NNO 6 km/h
Temperatura: 10°C
Rocío: 10°C
Humedad: 100%
Barómetro: 1029 hPa
Resumen: Niebla
Clouds: Cubierto
Visibility: 1 km
Cloud details: Cubierto 30 m
2021/01/18 01:30 LEAS 180130Z AUTO 33003KT 290V360 0500 0150W R29/1900N R11/0550N FG VV001 10/10 Q1029
 
LECO - La Coruna/Alvedr, Spain
Distance from station: ONO 222km
Actualización: Mon, 18-Jan-2021 2:30am CET
Cubierto
Cubierto
 Viento del ONO
Viento: ONO 2 km/h
Temperatura: 11°C
Rocío: 11°C
Humedad: 100%
Barómetro: 1029 hPa
Clouds: Cubierto
Visibility: 9 km
Cloud details: Few Clouds 671 m
Cubierto 853 m
2021/01/18 01:30 LECO 180130Z AUTO 30001KT 9000 FEW022 OVC028 11/11 Q1029
LEVX - Vigo/Peinador, Spain
Distance from station: O 214km
Actualización: Mon, 18-Jan-2021 2:30am CET
Despejado
Despejado
 Viento del varies
Viento: varies 2 km/h
Temperatura: 6°C
Rocío: 6°C
Humedad: 100%
Barómetro: 1028 hPa
Resumen: Despejado
Visibility: greater than 10 km
2021/01/18 01:30 LEVX 180130Z VRB01KT CAVOK 06/06 Q1028 NOSIG